This is the latest recevied weather packets stored in our database for station/object K8BCO. If no packets are shown the sender has not sent any weather packets the latest 10 day(s).
| Time | Temp. | Humidity | Pressure | Rain* | Wind** | Luminosity | Snow |
|---|---|---|---|---|---|---|---|
| 1778183117 | 6.67° C | 52% | 1008.9 hPa | 0 mm | - | 720 W/m² | - |
| 1778182517 | 6.11° C | 54% | 1009 hPa | 0 mm | - | 444 W/m² | - |
| 1778181918 | 6.67° C | 55% | 1009.2 hPa | 0 mm | - | 259 W/m² | - |
| 1778181318 | 6.67° C | 53% | 1008.9 hPa | 0 mm | - | 852 W/m² | - |
| 1778180718 | 6.11° C | 57% | 1009 hPa | 0 mm | - | 507 W/m² | - |
| 1778180118 | 6.11° C | 57% | 1009.1 hPa | 0 mm | - | 280 W/m² | - |
| 1778179518 | 6.67° C | 56% | 1009.2 hPa | 0 mm | - | 303 W/m² | - |
| 1778178919 | 6.67° C | 55% | 1009.1 hPa | 0 mm | - | 313 W/m² | - |
| 1778178319 | 7.22° C | 57% | 1009.1 hPa | 0 mm | - | 303 W/m² | - |
| 1778177718 | 7.78° C | 57% | 1008.9 hPa | 0 mm | - | 816 W/m² | - |
| 1778177116 | 8.89° C | 48% | 1009.3 hPa | 0 mm | - | 197 W/m² | - |
| 1778176516 | 9.44° C | 47% | 1009.1 hPa | 0 mm | - | 736 W/m² | - |
| 1778175916 | 8.89° C | 48% | 1008.9 hPa | 0 mm | - | 1122 W/m² | - |
| 1778175316 | 7.78° C | 54% | 1009.2 hPa | 0 mm | - | 895 W/m² | - |
| 1778174717 | 7.22° C | 58% | 1009.6 hPa | 0 mm | - | 358 W/m² | - |
| 1778174117 | 7.22° C | 56% | 1009.4 hPa | 0 mm | - | 526 W/m² | - |
| 1778173517 | 6.11° C | 60% | 1009.7 hPa | 0.76 mm | - | 571 W/m² | - |
| 1778172917 | 5° C | 65% | 1010 hPa | 0.76 mm | - | 258 W/m² | - |
| 1778172317 | 4.44° C | 76% | 1010.1 hPa | 0.76 mm | - | 476 W/m² | - |
| 1778171717 | 4.44° C | 75% | 1010.6 hPa | 0.76 mm | - | 165 W/m² | - |
| 1778171117 | 6.11° C | 64% | 1010.3 hPa | 0.76 mm | - | 121 W/m² | - |
| 1778170518 | 6.11° C | 62% | 1010.2 hPa | 0.51 mm | - | 238 W/m² | - |
| 1778169917 | 6.67° C | 58% | 1010.2 hPa | 0 mm | - | 110 W/m² | - |
| 1778169317 | 7.22° C | 58% | 1010.2 hPa | 0 mm | - | 241 W/m² | - |
| 1778168718 | 7.22° C | 58% | 1010.1 hPa | 0 mm | - | 608 W/m² | - |
* Rain latest hour (hover to see other rain measurements)
** Current wind speed in m/s (hover to see current wind gust speed)